Time;durP1;ratioP1;P1;durP2;ratioP2;P2;SDS_P1;SDS_P2;PMS_P1;PMS_P2;Temp;Humidity;BMP_temperature;BMP_pressure;BME280_temperature;BME280_humidity;BME280_pressure;Samples;Min_cycle;Max_cycle;Signal;HPM_P1;HPM_P2
2021/11/25 00:09:43;;;;;;;37.25;17.35;;;;;;;1.07;86.91;100126.69;20899960;28;20456;-71
2021/11/25 00:19:44;;;;;;;34.85;17.27;;;;;;;1.09;86.88;100111.22;20899891;28;20111;-71
2021/11/25 00:29:46;;;;;;;33.17;16.00;;;;;;;1.02;87.16;100081.91;20897721;28;20106;-69
2021/11/25 00:39:47;;;;;;;36.88;17.40;;;;;;;1.10;87.43;100076.84;20899421;28;20097;-70
2021/11/25 00:49:49;;;;;;;39.03;17.77;;;;;;;1.02;87.65;100079.31;20898911;28;20052;-71
2021/11/25 00:59:52;;;;;;;35.25;16.83;;;;;;;1.06;86.94;100083.69;20900132;28;20059;-70
2021/11/25 01:09:53;;;;;;;36.63;17.48;;;;;;;1.11;87.53;100084.66;20912982;28;20094;-71
2021/11/25 01:19:55;;;;;;;38.33;17.50;;;;;;;1.18;87.07;100076.16;20913088;28;20095;-70
2021/11/25 01:29:56;;;;;;;36.72;17.45;;;;;;;1.13;86.80;100089.81;20911308;28;20094;-70
2021/11/25 01:39:59;;;;;;;38.10;16.00;;;;;;;1.16;87.46;100101.06;20911084;28;20049;-70
2021/11/25 01:50:01;;;;;;;36.60;16.73;;;;;;;1.19;86.50;100087.34;20910802;28;20053;-71
2021/11/25 02:00:32;;;;;;;38.15;17.00;;;;;;;1.12;86.68;100082.94;20910236;28;20106;-70
2021/11/25 02:10:36;;;;;;;36.00;15.98;;;;;;;1.15;87.21;100062.34;20908492;28;20482;-70
2021/11/25 02:20:40;;;;;;;44.27;18.77;;;;;;;1.10;87.31;100043.34;20908640;28;20055;-69
2021/11/25 02:30:41;;;;;;;37.53;17.50;;;;;;;1.16;87.60;100015.09;20905583;28;20056;-70
2021/11/25 02:40:52;;;;;;;37.13;16.77;;;;;;;1.16;87.52;100013.38;20907041;28;20152;-70
2021/11/25 02:50:56;;;;;;;38.90;17.95;;;;;;;1.18;86.52;100006.53;20906375;28;20480;-70
2021/11/25 03:01:03;;;;;;;42.63;19.03;;;;;;;1.13;86.89;100000.44;20904333;28;20040;-71
2021/11/25 03:11:09;;;;;;;42.58;17.73;;;;;;;1.09;86.88;99996.06;20904335;28;20045;-70
2021/11/25 03:21:15;;;;;;;39.35;18.50;;;;;;;1.14;86.95;99981.53;20903187;28;20141;-70
2021/11/25 03:31:24;;;;;;;41.75;18.75;;;;;;;1.13;87.07;99987.53;20900915;28;20580;-70
2021/11/25 03:41:26;;;;;;;41.25;19.38;;;;;;;1.08;86.75;99983.16;20902647;28;20095;-71
2021/11/25 03:51:28;;;;;;;42.47;17.88;;;;;;;1.20;86.59;99981.66;20902406;28;20095;-71
2021/11/25 04:01:31;;;;;;;41.60;18.95;;;;;;;1.21;86.85;99987.69;20901127;28;20049;-70
2021/11/25 04:11:33;;;;;;;42.22;18.58;;;;;;;1.16;86.28;99985.03;20900585;28;20139;-69
2021/11/25 04:21:34;;;;;;;39.53;17.45;;;;;;;1.13;87.03;99979.81;20899978;28;20052;-71
2021/11/25 04:41:56;;;;;;;40.88;18.92;;;;;;;1.24;85.89;99967.06;20914675;28;20498;-70
2021/11/25 04:51:58;;;;;;;44.08;18.83;;;;;;;1.13;86.76;99961.75;20915356;28;20045;-71
2021/11/25 05:02:00;;;;;;;41.97;18.50;;;;;;;1.16;86.60;99964.41;20914684;28;20049;-70
2021/11/25 05:12:02;;;;;;;39.22;16.73;;;;;;;1.23;86.23;99971.38;20914457;28;20063;-71
2021/11/25 05:22:04;;;;;;;42.55;19.35;;;;;;;1.24;86.50;99964.50;20913171;28;20064;-71
2021/11/25 05:32:06;;;;;;;43.80;18.52;;;;;;;1.30;86.53;99958.59;20911413;28;20102;-70
2021/11/25 05:42:10;;;;;;;48.25;19.50;;;;;;;1.14;86.88;99947.16;20913427;28;20060;-70
2021/11/25 05:52:12;;;;;;;48.45;20.85;;;;;;;1.27;85.34;99955.09;20909180;28;20393;-71
2021/11/25 06:02:15;;;;;;;46.30;20.42;;;;;;;1.23;86.51;99971.38;20909597;28;20072;-69
2021/11/25 06:12:18;;;;;;;49.70;21.37;;;;;;;1.30;85.66;99964.59;20909275;28;20052;-69
2021/11/25 06:22:20;;;;;;;48.10;19.60;;;;;;;1.27;85.57;99947.38;20908577;28;20057;-69
2021/11/25 06:32:22;;;;;;;48.00;20.55;;;;;;;1.36;84.95;99945.78;20906624;28;20078;-70
2021/11/25 06:42:23;;;;;;;51.63;22.00;;;;;;;1.27;85.78;99956.81;20906315;28;20053;-71
2021/11/25 06:52:25;;;;;;;53.08;21.05;;;;;;;1.35;85.28;99975.84;20905171;28;20059;-70
2021/11/25 07:02:26;;;;;;;51.28;20.77;;;;;;;1.46;84.94;99973.41;20902805;28;20056;-70
2021/11/25 07:12:28;;;;;;;46.22;19.67;;;;;;;1.57;86.18;99995.06;20903661;28;20842;-71
2021/11/25 07:22:30;;;;;;;47.97;22.17;;;;;;;1.40;84.93;99974.22;20902911;28;20049;-71
2021/11/25 07:32:32;;;;;;;48.97;23.30;;;;;;;1.40;84.83;99968.19;20900276;28;20091;-70
2021/11/25 07:42:33;;;;;;;52.88;22.52;;;;;;;1.37;84.89;99979.31;20901157;28;20049;-70
2021/11/25 07:52:36;;;;;;;47.78;22.50;;;;;;;1.48;84.96;99971.72;20900611;28;20504;-70
2021/11/25 08:02:38;;;;;;;49.67;22.27;;;;;;;1.62;82.88;99982.22;20877358;28;20134;-70
2021/11/25 08:12:41;;;;;;;48.67;22.60;;;;;;;1.72;83.20;99982.38;20874191;28;20045;-70
2021/11/25 08:22:43;;;;;;;43.88;20.90;;;;;;;1.80;81.98;99990.22;20847154;28;20051;-70
2021/11/25 08:32:44;;;;;;;47.03;21.30;;;;;;;1.93;80.58;99981.78;20863627;28;20095;-69
2021/11/25 08:42:47;;;;;;;47.55;22.23;;;;;;;1.99;80.34;99966.38;20852181;28;20115;-70
2021/11/25 08:52:48;;;;;;;44.90;21.40;;;;;;;1.92;80.06;99972.31;20882687;28;20123;-65
2021/11/25 09:02:52;;;;;;;41.30;20.40;;;;;;;2.03;78.71;99987.94;20890232;28;20057;-66
2021/11/25 09:12:54;;;;;;;46.70;20.27;;;;;;;2.00;78.81;99980.16;20864140;28;20077;-67
2021/11/25 09:22:58;;;;;;;45.05;21.60;;;;;;;2.06;78.00;99967.34;20812441;28;20064;-68
2021/11/25 09:33:00;;;;;;;42.15;20.65;;;;;;;2.13;77.72;99979.44;20821248;28;20054;-70
2021/11/25 09:43:05;;;;;;;45.72;21.35;;;;;;;2.18;77.35;99961.41;20821476;28;20049;-70
2021/11/25 09:53:09;;;;;;;46.22;21.50;;;;;;;2.33;75.50;99960.72;20820799;28;20045;-70
2021/11/25 10:03:17;;;;;;;47.80;21.20;;;;;;;2.34;77.56;99972.78;20819786;28;20111;-72
2021/11/25 10:13:24;;;;;;;46.10;21.15;;;;;;;2.22;76.12;99969.22;20850924;28;20037;-71
2021/11/25 10:23:29;;;;;;;48.13;21.40;;;;;;;2.34;75.38;99973.63;20892758;28;20098;-71
2021/11/25 10:33:35;;;;;;;41.15;19.40;;;;;;;2.26;75.25;99963.25;20899904;28;20045;-70
2021/11/25 10:43:36;;;;;;;50.72;22.63;;;;;;;2.48;76.42;99956.56;20900305;28;20052;-71
2021/11/25 10:54:01;;;;;;;48.83;22.52;;;;;;;2.40;75.86;99963.41;20900691;28;20041;-75
2021/11/25 11:04:03;;;;;;;48.67;22.47;;;;;;;2.23;74.34;99964.91;20901956;28;20056;-71
2021/11/25 11:24:21;;;;;;;54.15;25.48;;;;;;;2.20;76.49;99968.31;20832070;28;20103;-70
2021/11/25 11:34:25;;;;;;;58.00;26.08;;;;;;;2.34;75.74;99965.03;20814421;28;20077;-74
2021/11/25 11:44:27;;;;;;;53.75;23.45;;;;;;;2.23;75.63;99965.78;20812401;28;20096;-70
2021/11/25 11:54:38;;;;;;;53.88;23.75;;;;;;;2.05;76.87;99963.84;20812468;28;20391;-71
2021/11/25 12:04:41;;;;;;;53.10;25.52;;;;;;;2.29;75.77;99947.75;20810949;28;20046;-69
2021/11/25 12:14:54;;;;;;;58.08;26.73;;;;;;;2.22;77.10;99940.81;20851508;28;20041;-68
2021/11/25 12:25:00;;;;;;;57.38;25.05;;;;;;;2.15;76.29;99922.63;20892788;28;20122;-68
2021/11/25 12:35:27;;;;;;;58.83;25.65;;;;;;;2.14;77.06;99914.03;20892356;28;20045;-68
2021/11/25 12:45:42;;;;;;;55.67;26.23;;;;;;;2.02;77.18;99901.00;20891774;28;20049;-68
2021/11/25 12:56:01;;;;;;;55.33;24.67;;;;;;;2.08;77.06;99897.63;20891303;28;20116;-69
2021/11/25 13:06:02;;;;;;;57.92;28.20;;;;;;;2.12;76.41;99894.22;20832170;28;20107;-68
2021/11/25 13:16:07;;;;;;;53.65;23.30;;;;;;;2.08;78.71;99900.19;20873746;28;20181;-70
2021/11/25 13:26:08;;;;;;;54.10;23.20;;;;;;;1.91;78.36;99889.69;20902493;28;20150;-71
2021/11/25 13:36:10;;;;;;;48.08;22.40;;;;;;;2.18;77.68;99889.97;20904373;28;20049;-68
2021/11/25 13:46:11;;;;;;;43.60;19.98;;;;;;;2.15;77.45;99895.09;20905301;28;20057;-69
2021/11/25 13:56:13;;;;;;;42.97;19.45;;;;;;;1.91;78.32;99897.41;20904943;28;20041;-67
2021/11/25 14:06:35;;;;;;;45.45;20.45;;;;;;;2.20;76.27;99883.09;20900222;28;20106;-68
2021/11/25 14:16:46;;;;;;;42.95;20.38;;;;;;;2.23;77.25;99890.03;20844752;28;20049;-68
2021/11/25 14:30:05;;;;;;;43.22;19.73;;;;;;;1.91;76.95;99905.16;20816884;28;20053;-66
2021/11/25 14:37:34;;;;;;;40.63;19.20;;;;;;;2.06;77.41;99907.94;20817011;28;20437;-67
2021/11/25 14:47:50;;;;;;;45.87;20.97;;;;;;;2.01;76.85;99901.84;20819061;28;20057;-67
2021/11/25 14:57:57;;;;;;;42.50;19.83;;;;;;;1.97;77.37;99907.84;20816112;28;20590;-67
2021/11/25 15:08:02;;;;;;;46.53;20.38;;;;;;;2.00;76.97;99920.75;20815602;28;20080;-67
2021/11/25 15:18:04;;;;;;;;;;;;;;;2.00;77.18;99933.66;20881474;28;20045;-69
2021/11/25 15:28:05;;;;;;;42.97;19.60;;;;;;;2.03;77.61;99928.56;20893982;28;19921;-67
2021/11/25 15:38:14;;;;;;;43.03;20.45;;;;;;;2.08;78.08;99932.03;20894247;28;20103;-67
2021/11/25 15:48:17;;;;;;;40.63;19.92;;;;;;;2.11;77.63;99932.09;20895092;28;20115;-67
2021/11/25 15:58:19;;;;;;;37.92;17.90;;;;;;;2.13;77.56;99940.72;20893148;28;20053;-67
2021/11/25 16:08:21;;;;;;;47.03;21.45;;;;;;;2.07;78.97;99943.22;20892869;28;20048;-67
2021/11/25 16:18:22;;;;;;;44.17;20.05;;;;;;;2.10;78.39;99961.31;20821519;28;20057;-67
2021/11/25 16:28:24;;;;;;;50.75;23.10;;;;;;;2.16;79.17;99943.34;20807107;28;20053;-67
2021/11/25 16:38:25;;;;;;;44.28;19.15;;;;;;;2.12;78.88;99957.06;20825221;28;20103;-67
2021/11/25 16:48:28;;;;;;;45.28;21.15;;;;;;;2.09;79.60;99951.84;20825333;28;20049;-67
2021/11/25 16:58:31;;;;;;;44.50;19.35;;;;;;;2.06;80.17;99967.34;20825246;28;20053;-67
2021/11/25 17:08:34;;;;;;;44.63;19.85;;;;;;;2.07;79.75;99958.72;20823308;28;20065;-67
2021/11/25 17:18:39;;;;;;;46.08;20.50;;;;;;;2.11;79.65;99954.44;20896943;28;20106;-67
2021/11/25 17:28:45;;;;;;;51.00;23.08;;;;;;;2.17;80.38;99955.41;20904516;28;20071;-67
2021/11/25 17:38:47;;;;;;;49.28;24.35;;;;;;;2.20;79.86;99960.56;20894735;28;20115;-66
2021/11/25 17:48:49;;;;;;;56.22;27.17;;;;;;;2.27;81.14;99971.84;20847512;28;20053;-67
2021/11/25 17:58:51;;;;;;;65.68;30.05;;;;;;;2.25;81.75;99979.59;20817752;28;20060;-66
2021/11/25 18:08:52;;;;;;;60.15;28.88;;;;;;;2.27;80.49;99983.06;20899811;28;20052;-66
2021/11/25 18:18:54;;;;;;;59.33;29.00;;;;;;;2.26;80.92;99981.31;20824422;28;20045;-66
2021/11/25 18:29:00;;;;;;;55.40;28.20;;;;;;;2.25;80.76;99965.78;20842231;28;20041;-66
2021/11/25 18:39:02;;;;;;;48.03;23.33;;;;;;;2.21;80.83;99957.16;20816787;28;20054;-66
2021/11/25 18:49:06;;;;;;;53.78;24.30;;;;;;;2.17;81.57;99952.81;20817496;28;20095;-66
2021/11/25 18:59:08;;;;;;;48.00;23.73;;;;;;;2.10;81.62;99952.72;20814503;28;20057;-66
2021/11/25 19:09:10;;;;;;;46.78;22.75;;;;;;;2.03;81.63;99956.94;20814444;28;20057;-67
2021/11/25 19:19:11;;;;;;;45.85;20.85;;;;;;;1.93;82.55;99973.19;20891513;28;20079;-66
2021/11/25 19:29:13;;;;;;;46.40;20.38;;;;;;;1.85;82.33;99982.53;20894212;28;20129;-66
2021/11/25 19:39:14;;;;;;;47.53;21.75;;;;;;;1.89;82.06;99963.66;20894009;28;20083;-66
2021/11/25 19:49:16;;;;;;;44.80;20.40;;;;;;;1.90;83.03;99939.56;20894380;28;20549;-67
2021/11/25 19:59:18;;;;;;;45.22;19.60;;;;;;;1.84;83.18;99929.19;20892089;28;20052;-66
2021/11/25 20:09:19;;;;;;;49.22;24.05;;;;;;;1.84;83.30;99908.53;20890750;28;20053;-67
2021/11/25 20:19:21;;;;;;;48.78;23.75;;;;;;;1.69;84.03;99914.38;20813260;28;20495;-66
2021/11/25 20:29:23;;;;;;;59.63;29.23;;;;;;;1.57;84.62;99904.75;20807572;28;20386;-66
2021/11/25 20:39:24;;;;;;;48.03;22.38;;;;;;;1.40;85.05;99894.25;20809114;28;20057;-67
2021/11/25 20:49:26;;;;;;;55.03;24.85;;;;;;;1.28;85.91;99894.94;20827324;28;20107;-67
2021/11/25 20:59:28;;;;;;;48.72;23.55;;;;;;;1.19;86.41;99886.19;20813810;28;20084;-67
2021/11/25 21:09:30;;;;;;;48.78;21.05;;;;;;;1.12;86.22;99900.75;20807262;28;20045;-67
2021/11/25 21:19:32;;;;;;;46.45;22.13;;;;;;;1.13;85.72;99889.56;20867812;28;20045;-69
2021/11/25 21:29:34;;;;;;;51.38;23.80;;;;;;;1.07;86.88;99889.50;20820839;28;20538;-67
2021/11/25 21:39:35;;;;;;;43.58;21.20;;;;;;;1.06;86.87;99882.63;20821945;28;20092;-69
2021/11/25 21:49:37;;;;;;;49.95;22.52;;;;;;;1.06;86.65;99869.72;20803109;28;20053;-69
2021/11/25 21:59:38;;;;;;;40.72;20.83;;;;;;;1.16;86.41;99858.69;20821247;28;20061;-68
2021/11/25 22:09:40;;;;;;;49.33;23.15;;;;;;;1.19;85.98;99844.94;20818831;28;20045;-68
2021/11/25 22:19:42;;;;;;;47.50;22.38;;;;;;;1.17;86.29;99829.47;20900918;28;20060;-68
2021/11/25 22:29:44;;;;;;;46.65;21.95;;;;;;;1.15;86.38;99822.53;20899378;28;20493;-68
2021/11/25 22:39:46;;;;;;;47.97;23.33;;;;;;;1.01;87.14;99838.72;20897998;28;20121;-68
2021/11/25 22:49:47;;;;;;;42.55;20.85;;;;;;;1.20;86.83;99832.09;20899498;28;20053;-68
2021/11/25 22:59:49;;;;;;;44.90;20.90;;;;;;;1.23;86.27;99837.28;20899257;28;20490;-71
2021/11/25 23:09:50;;;;;;;47.72;21.15;;;;;;;1.22;86.58;99809.75;20903705;28;20497;-69
2021/11/25 23:19:52;;;;;;;44.30;19.90;;;;;;;1.23;86.31;99796.00;20904821;28;20107;-68
2021/11/25 23:29:54;;;;;;;42.08;19.77;;;;;;;1.38;86.33;99774.69;20905119;28;20486;-69
2021/11/25 23:39:56;;;;;;;43.22;19.52;;;;;;;1.44;86.22;99753.28;20901789;28;20051;-66
2021/11/25 23:49:59;;;;;;;54.05;24.65;;;;;;;1.52;85.47;99736.16;20902300;28;20453;-66
